Time;durP1;ratioP1;P1;durP2;ratioP2;P2;SDS_P1;SDS_P2;PMS_P1;PMS_P2;Temp;Humidity;BMP_temperature;BMP_pressure;BME280_temperature;BME280_humidity;BME280_pressure;Samples;Min_cycle;Max_cycle;Signal;HPM_P1;HPM_P2
2022/07/22 00:00:05;;;;;;;27.63;12.48;;;15.80;99.90;;;;;;6100889;23;20022;-84
2022/07/22 00:02:33;;;;;;;13.65;10.90;;;15.80;99.90;;;;;;6125474;23;20025;-84
2022/07/22 00:05:01;;;;;;;14.93;10.90;;;15.80;99.90;;;;;;6161057;23;20013;-84
2022/07/22 00:07:29;;;;;;;12.82;10.57;;;15.70;99.90;;;;;;6129469;23;20025;-84
2022/07/22 00:09:57;;;;;;;15.93;12.32;;;15.70;99.90;;;;;;6101777;23;20017;-85
2022/07/22 00:12:25;;;;;;;12.73;10.98;;;15.80;99.90;;;;;;6100864;23;20028;-84
2022/07/22 00:14:53;;;;;;;15.27;10.55;;;15.80;99.90;;;;;;6125031;23;20036;-85
2022/07/22 00:17:21;;;;;;;12.00;10.75;;;15.80;99.90;;;;;;6161729;23;20017;-85
2022/07/22 00:19:49;;;;;;;10.02;8.77;;;15.80;99.90;;;;;;6150926;23;20025;-84
2022/07/22 00:22:16;;;;;;;14.45;12.10;;;15.90;99.90;;;;;;6100539;23;20040;-85
2022/07/22 00:24:49;;;;;;;25.50;10.48;;;15.90;99.90;;;;;;6125593;23;20021;-84
2022/07/22 00:27:17;;;;;;;13.30;9.98;;;15.80;99.90;;;;;;6124734;23;20018;-84
2022/07/22 00:30:04;;;;;;;12.98;8.90;;;15.60;99.90;;;;;;6159963;23;20013;-84
2022/07/22 00:32:32;;;;;;;12.05;10.40;;;15.40;99.90;;;;;;6149791;23;20028;-84
2022/07/22 00:35:00;;;;;;;11.63;8.45;;;15.40;99.90;;;;;;6125401;23;20021;-84
2022/07/22 00:37:28;;;;;;;14.32;9.57;;;15.40;99.90;;;;;;6125411;23;20025;-85
2022/07/22 00:39:56;;;;;;;14.90;10.52;;;15.40;99.90;;;;;;6151902;23;20861;-84
2022/07/22 00:42:24;;;;;;;13.23;11.55;;;15.40;99.90;;;;;;6125292;23;20022;-85
2022/07/22 00:44:52;;;;;;;13.43;12.05;;;15.40;99.90;;;;;;6101159;23;20021;-85
2022/07/22 00:47:23;;;;;;;13.73;10.38;;;15.50;99.90;;;;;;6130047;23;20025;-85
2022/07/22 00:49:51;;;;;;;22.83;11.52;;;15.50;99.90;;;;;;6125385;23;20022;-85
2022/07/22 00:52:24;;;;;;;13.52;9.38;;;15.60;99.90;;;;;;6124236;23;20033;-85
2022/07/22 00:54:59;;;;;;;17.05;9.73;;;15.60;99.90;;;;;;6131575;23;20021;-85
2022/07/22 00:57:27;;;;;;;16.48;13.18;;;15.60;99.90;;;;;;6159943;23;20025;-85
2022/07/22 00:59:56;;;;;;;16.45;11.98;;;15.60;99.90;;;;;;6123705;23;20025;-85
2022/07/22 01:02:24;;;;;;;13.43;9.57;;;15.60;99.90;;;;;;6142010;23;20028;-85
2022/07/22 01:04:52;;;;;;;13.52;12.07;;;15.60;99.90;;;;;;6101033;23;20029;-85
2022/07/22 01:07:19;;;;;;;14.63;11.07;;;15.60;99.90;;;;;;6099865;23;20029;-85
2022/07/22 01:09:47;;;;;;;13.25;10.18;;;15.60;99.90;;;;;;6159355;23;20729;-85
2022/07/22 01:12:15;;;;;;;11.40;10.00;;;15.70;99.90;;;;;;6150613;23;20030;-85
2022/07/22 01:14:43;;;;;;;13.13;10.25;;;15.70;99.90;;;;;;6098732;23;20746;-85
2022/07/22 01:17:11;;;;;;;17.30;11.43;;;15.60;99.90;;;;;;6125378;23;20040;-84
2022/07/22 01:19:43;;;;;;;17.13;12.18;;;15.50;99.90;;;;;;6124824;23;20029;-85
2022/07/22 01:22:12;;;;;;;13.18;9.88;;;15.30;99.90;;;;;;6124151;23;20028;-85
2022/07/22 01:24:41;;;;;;;12.75;10.52;;;15.30;99.90;;;;;;6125705;23;20072;-85
2022/07/22 01:27:09;;;;;;;15.48;10.65;;;15.30;99.90;;;;;;6124262;23;20029;-85
2022/07/22 01:30:13;;;;;;;16.63;12.90;;;15.30;99.90;;;;;;6159343;23;20017;-85
2022/07/22 01:32:41;;;;;;;17.83;12.27;;;15.40;99.90;;;;;;6123613;23;20036;-86
2022/07/22 01:35:09;;;;;;;14.10;10.77;;;15.40;99.90;;;;;;6076483;23;20044;-85
2022/07/22 01:37:37;;;;;;;13.38;10.18;;;15.50;99.90;;;;;;6124775;23;20028;-85
2022/07/22 01:40:06;;;;;;;14.88;10.07;;;15.50;99.90;;;;;;6125887;23;20469;-85
2022/07/22 01:42:35;;;;;;;10.18;9.18;;;15.30;99.90;;;;;;6149180;23;20025;-86
2022/07/22 01:45:06;;;;;;;15.93;11.98;;;15.20;99.90;;;;;;6149372;23;20032;-85
2022/07/22 01:47:34;;;;;;;16.73;11.15;;;15.10;99.90;;;;;;6128464;23;20079;-85
2022/07/22 01:50:08;;;;;;;16.02;12.15;;;15.20;99.90;;;;;;6134967;23;20029;-86
2022/07/22 01:52:38;;;;;;;16.45;11.05;;;15.40;99.90;;;;;;6123577;23;20025;-85
2022/07/22 01:55:09;;;;;;;12.90;11.18;;;15.40;99.90;;;;;;6123419;23;20033;-85
2022/07/22 01:57:44;;;;;;;19.85;11.63;;;15.40;99.90;;;;;;6159152;23;20020;-85
2022/07/22 02:00:26;;;;;;;13.68;9.38;;;15.50;99.90;;;;;;6135950;23;20048;-85
2022/07/22 02:02:54;;;;;;;22.42;13.30;;;15.50;99.90;;;;;;6124507;23;20036;-85
2022/07/22 02:05:28;;;;;;;14.95;11.85;;;15.40;99.90;;;;;;6124402;23;20702;-85
2022/07/22 02:08:05;;;;;;;17.77;11.05;;;15.30;99.90;;;;;;6123088;23;20712;-85
2022/07/22 02:10:55;;;;;;;13.60;10.20;;;15.20;99.90;;;;;;6108338;23;20018;-85
2022/07/22 02:13:29;;;;;;;12.68;11.38;;;15.20;99.90;;;;;;6149835;23;20025;-85
2022/07/22 02:16:03;;;;;;;14.18;10.90;;;15.20;99.90;;;;;;6126211;23;20461;-85
2022/07/22 02:18:37;;;;;;;17.85;11.60;;;15.10;99.90;;;;;;6131886;23;20044;-85
2022/07/22 02:21:12;;;;;;;15.57;11.63;;;15.10;99.90;;;;;;6099685;23;20472;-85
2022/07/22 02:23:42;;;;;;;12.90;11.02;;;15.20;99.90;;;;;;6124388;23;20032;-77
2022/07/22 02:26:10;;;;;;;18.52;14.15;;;15.20;99.90;;;;;;6106186;23;20086;-77
2022/07/22 02:28:38;;;;;;;10.68;9.45;;;15.30;99.90;;;;;;6156639;23;20754;-77
2022/07/22 02:31:06;;;;;;;19.05;13.68;;;15.30;99.90;;;;;;6150429;23;20037;-77
2022/07/22 02:33:33;;;;;;;17.95;12.13;;;15.30;99.90;;;;;;6155542;23;20017;-77
2022/07/22 02:36:03;;;;;;;18.40;14.43;;;15.40;99.90;;;;;;6146793;23;20029;-77
2022/07/22 02:38:33;;;;;;;16.27;14.15;;;15.30;99.90;;;;;;6151590;23;20022;-76
2022/07/22 02:41:01;;;;;;;18.27;12.00;;;15.40;99.90;;;;;;6155037;23;20014;-76
2022/07/22 02:43:29;;;;;;;24.83;11.88;;;15.30;99.90;;;;;;6150054;23;20807;-77
2022/07/22 02:45:57;;;;;;;11.88;10.68;;;15.20;99.90;;;;;;6130848;23;20017;-77
2022/07/22 02:48:25;;;;;;;15.88;10.02;;;15.10;99.90;;;;;;6146338;23;20037;-77
2022/07/22 02:50:53;;;;;;;9.73;8.25;;;15.10;99.90;;;;;;6127246;23;20028;-77
2022/07/22 02:53:24;;;;;;;56.53;20.92;;;15.10;99.90;;;;;;6132210;23;20018;-77
2022/07/22 02:55:52;;;;;;;17.95;14.18;;;15.10;99.90;;;;;;6124951;23;20022;-77
2022/07/22 02:58:20;;;;;;;22.88;16.52;;;15.10;99.90;;;;;;6156613;23;20449;-77
2022/07/22 03:00:47;;;;;;;21.20;15.43;;;15.20;99.90;;;;;;6131436;23;20029;-75
2022/07/22 03:03:15;;;;;;;19.52;14.77;;;15.20;99.90;;;;;;6152261;23;20559;-76
2022/07/22 03:05:43;;;;;;;17.20;13.95;;;15.30;99.90;;;;;;6131330;23;20013;-75
2022/07/22 03:08:22;;;;;;;17.50;12.65;;;15.40;99.90;;;;;;6121229;23;20029;-75
2022/07/22 03:10:50;;;;;;;12.38;10.48;;;15.20;99.90;;;;;;6127955;23;20021;-75
2022/07/22 03:13:17;;;;;;;22.20;12.50;;;15.00;99.90;;;;;;6121273;23;20436;-75
2022/07/22 03:15:45;;;;;;;22.27;12.10;;;15.00;99.90;;;;;;6124166;23;20030;-75
2022/07/22 03:18:13;;;;;;;17.40;12.60;;;15.00;99.90;;;;;;6153563;23;20017;-76
2022/07/22 03:20:41;;;;;;;15.43;11.27;;;15.00;99.90;;;;;;6131373;23;20014;-77
2022/07/22 03:23:10;;;;;;;16.35;13.10;;;14.90;99.90;;;;;;6126303;23;20025;-76
2022/07/22 03:25:38;;;;;;;12.30;9.57;;;14.90;99.90;;;;;;6158094;23;20021;-76
2022/07/22 03:28:06;;;;;;;14.80;10.70;;;14.90;99.90;;;;;;6148454;23;20029;-76
2022/07/22 03:30:35;;;;;;;12.75;10.52;;;15.00;99.90;;;;;;6128954;23;20441;-76
2022/07/22 03:33:03;;;;;;;19.38;11.43;;;14.90;99.90;;;;;;6131549;23;20020;-76
2022/07/22 03:35:36;;;;;;;25.42;12.88;;;14.90;99.90;;;;;;6124865;23;20025;-76
2022/07/22 03:38:04;;;;;;;15.13;11.25;;;14.90;99.90;;;;;;6150927;23;20018;-77
2022/07/22 03:40:32;;;;;;;16.60;12.80;;;14.90;99.90;;;;;;6146074;23;20022;-77
2022/07/22 03:43:00;;;;;;;25.83;13.63;;;15.00;99.90;;;;;;6152116;23;20036;-77
2022/07/22 03:45:27;;;;;;;13.25;10.48;;;15.00;99.90;;;;;;6157981;23;20504;-76
2022/07/22 03:47:57;;;;;;;12.45;11.15;;;15.00;99.90;;;;;;6123314;23;20021;-76
2022/07/22 03:50:28;;;;;;;17.65;14.77;;;15.00;99.90;;;;;;6120957;23;20457;-76
2022/07/22 03:52:56;;;;;;;15.68;12.20;;;15.00;99.90;;;;;;6157646;23;20048;-77
2022/07/22 03:55:24;;;;;;;14.13;11.65;;;15.10;99.90;;;;;;6126078;23;20056;-76
2022/07/22 03:57:54;;;;;;;27.38;14.13;;;15.00;99.90;;;;;;6156106;23;20337;-77
2022/07/22 04:00:29;;;;;;;68.00;21.02;;;14.80;99.90;;;;;;6121308;23;20029;-76
2022/07/22 04:02:58;;;;;;;21.60;9.68;;;14.80;99.90;;;;;;6151526;23;20025;-77
2022/07/22 04:05:52;;;;;;;46.47;13.35;;;14.80;99.90;;;;;;6124715;23;20021;-76
2022/07/22 04:08:30;;;;;;;14.80;10.70;;;14.80;99.90;;;;;;6119434;23;20025;-76
2022/07/22 04:10:58;;;;;;;15.73;12.65;;;14.80;99.90;;;;;;6127486;23;20551;-76
2022/07/22 04:13:26;;;;;;;18.42;12.05;;;14.80;99.90;;;;;;6157811;23;20025;-77
2022/07/22 04:15:56;;;;;;;20.48;15.18;;;14.80;99.90;;;;;;6124221;23;20029;-77
2022/07/22 04:18:24;;;;;;;20.50;14.50;;;14.90;99.90;;;;;;6129503;23;20022;-79
2022/07/22 04:20:52;;;;;;;19.92;13.85;;;15.00;99.90;;;;;;6129427;23;20010;-81
2022/07/22 04:23:20;;;;;;;21.75;14.48;;;15.20;99.90;;;;;;6125174;23;20030;-81
2022/07/22 04:25:54;;;;;;;17.48;12.98;;;15.40;99.90;;;;;;6129635;23;20494;-81
2022/07/22 04:28:22;;;;;;;23.65;15.50;;;15.40;99.90;;;;;;6119904;23;20079;-82
2022/07/22 04:30:50;;;;;;;20.58;14.00;;;15.40;99.90;;;;;;6127952;23;20815;-82
2022/07/22 04:33:18;;;;;;;22.30;15.43;;;15.50;99.90;;;;;;6130956;23;20014;-82
2022/07/22 04:35:46;;;;;;;24.15;12.57;;;15.50;99.90;;;;;;6122359;23;20834;-81
2022/07/22 04:38:20;;;;;;;;;;;15.60;99.90;;;;;;6127558;23;20022;-81
2022/07/22 04:40:58;;;;;;;15.35;11.07;;;15.70;99.90;;;;;;6153540;23;20249;-81
2022/07/22 04:43:26;;;;;;;16.58;12.32;;;15.80;99.90;;;;;;6147855;23;20466;-81
2022/07/22 04:45:55;;;;;;;16.20;12.18;;;15.90;99.90;;;;;;6130766;23;20014;-81
2022/07/22 04:48:26;;;;;;;14.68;12.30;;;15.90;99.90;;;;;;6118505;23;20034;-81
2022/07/22 04:50:59;;;;;;;19.80;13.75;;;16.00;99.90;;;;;;6150107;23;20033;-81
2022/07/22 04:53:28;;;;;;;15.10;12.27;;;16.10;99.90;;;;;;6152989;23;20017;-82
2022/07/22 04:56:18;;;;;;;18.00;13.00;;;16.20;99.90;;;;;;6118915;23;20033;-79
2022/07/22 04:58:47;;;;;;;17.60;13.60;;;16.20;99.90;;;;;;6124389;23;20029;-79
2022/07/22 05:01:15;;;;;;;14.18;11.93;;;16.30;99.90;;;;;;6151898;23;20711;-79
2022/07/22 05:03:46;;;;;;;21.52;14.38;;;16.40;99.90;;;;;;6120256;23;20030;-80
2022/07/22 05:06:14;;;;;;;21.42;13.50;;;16.50;99.90;;;;;;6127275;23;20014;-80
2022/07/22 05:08:44;;;;;;;16.38;11.98;;;16.40;99.90;;;;;;6127893;23;20017;-80
2022/07/22 05:11:12;;;;;;;21.38;15.18;;;16.50;99.90;;;;;;6093183;23;20030;-79
2022/07/22 05:13:40;;;;;;;15.32;12.75;;;16.60;99.90;;;;;;6126637;23;20580;-80
2022/07/22 05:16:09;;;;;;;24.23;14.15;;;16.60;99.90;;;;;;6119252;23;20037;-80
2022/07/22 05:18:38;;;;;;;16.60;12.23;;;16.70;99.90;;;;;;6125717;23;20084;-79
2022/07/22 05:21:09;;;;;;;20.25;16.25;;;16.80;99.90;;;;;;6147635;23;20028;-82
2022/07/22 05:23:37;;;;;;;17.33;12.02;;;17.00;99.90;;;;;;6151511;23;20048;-79
2022/07/22 05:26:05;;;;;;;15.85;11.93;;;17.10;99.90;;;;;;6133221;23;20017;-80
2022/07/22 05:28:33;;;;;;;31.83;14.63;;;17.20;99.90;;;;;;6148134;23;20828;-80
2022/07/22 05:31:01;;;;;;;23.42;17.67;;;17.30;99.90;;;;;;6129196;23;20021;-80
2022/07/22 05:33:31;;;;;;;23.40;16.63;;;17.40;99.90;;;;;;6156867;23;20699;-80
2022/07/22 05:36:09;;;;;;;22.13;15.20;;;17.70;99.90;;;;;;6149759;23;20028;-80
2022/07/22 05:38:43;;;;;;;21.35;15.05;;;17.70;99.90;;;;;;6129625;23;20036;-80
2022/07/22 05:41:10;;;;;;;20.02;13.90;;;17.90;99.90;;;;;;6158563;23;20019;-79
2022/07/22 05:43:39;;;;;;;19.58;15.10;;;18.00;99.90;;;;;;6125269;23;20029;-78
2022/07/22 05:46:09;;;;;;;19.85;13.80;;;18.00;99.90;;;;;;6157627;23;20025;-79
2022/07/22 05:48:37;;;;;;;21.65;15.20;;;18.10;99.90;;;;;;6120943;23;20337;-79
2022/07/22 05:51:13;;;;;;;17.48;14.32;;;18.20;99.90;;;;;;6127081;23;20021;-79
2022/07/22 05:53:42;;;;;;;20.30;13.55;;;18.30;99.90;;;;;;6132150;23;20074;-80
2022/07/22 05:56:12;;;;;;;25.47;14.87;;;18.40;99.90;;;;;;6148136;23;20026;-80
2022/07/22 05:58:42;;;;;;;17.02;14.85;;;18.50;99.90;;;;;;6154824;23;20021;-80
2022/07/22 06:01:17;;;;;;;24.23;16.45;;;18.60;99.90;;;;;;6156975;23;20017;-80
2022/07/22 06:03:50;;;;;;;22.02;13.27;;;18.80;99.90;;;;;;6124803;23;20038;-80
2022/07/22 06:06:18;;;;;;;17.05;12.40;;;19.00;99.90;;;;;;6131819;23;20021;-81
2022/07/22 06:08:47;;;;;;;19.25;14.32;;;19.10;99.90;;;;;;6158255;23;20009;-81
2022/07/22 06:11:20;;;;;;;15.55;13.38;;;19.20;99.90;;;;;;6126886;23;20366;-81
2022/07/22 06:13:48;;;;;;;23.17;12.27;;;19.30;99.90;;;;;;6158087;23;20020;-81
2022/07/22 06:16:16;;;;;;;16.52;13.57;;;19.40;99.90;;;;;;6123698;23;20032;-81
2022/07/22 06:18:44;;;;;;;14.25;12.63;;;19.50;99.90;;;;;;6132349;23;20048;-83
2022/07/22 06:21:12;;;;;;;18.75;12.40;;;19.60;99.90;;;;;;6129589;23;20014;-84
2022/07/22 06:23:40;;;;;;;16.98;12.82;;;19.70;99.90;;;;;;6146177;23;20030;-76
2022/07/22 06:26:08;;;;;;;16.25;11.98;;;19.70;99.90;;;;;;6127051;23;20014;-76
2022/07/22 06:28:36;;;;;;;15.45;12.07;;;19.70;99.90;;;;;;6115351;23;20034;-76
2022/07/22 06:31:05;;;;;;;21.00;14.35;;;19.70;99.90;;;;;;6146623;23;20453;-76
2022/07/22 06:33:33;;;;;;;18.75;14.88;;;19.90;99.90;;;;;;6127199;23;20029;-76
2022/07/22 06:36:03;;;;;;;17.38;11.98;;;19.90;99.90;;;;;;6119145;23;20030;-77
2022/07/22 06:38:32;;;;;;;14.55;12.32;;;20.10;99.90;;;;;;6124632;23;20378;-77
2022/07/22 06:41:40;;;;;;;27.33;15.45;;;20.20;99.90;;;;;;6152161;23;20018;-77
2022/07/22 06:44:26;;;;;;;15.90;13.15;;;20.30;99.90;;;;;;6119165;23;20029;-76
2022/07/22 06:47:11;;;;;;;19.13;13.07;;;20.40;99.90;;;;;;6122314;23;20032;-76
2022/07/22 06:49:39;;;;;;;22.88;13.07;;;20.50;99.90;;;;;;6127404;23;20024;-76
2022/07/22 06:52:07;;;;;;;16.23;12.95;;;20.50;99.90;;;;;;6142085;23;20533;-77
2022/07/22 06:54:35;;;;;;;12.70;10.35;;;20.70;99.90;;;;;;6127242;23;20653;-77
2022/07/22 06:57:03;;;;;;;16.63;12.77;;;20.70;99.90;;;;;;6127142;23;20024;-77
2022/07/22 06:59:33;;;;;;;21.17;11.07;;;20.70;99.90;;;;;;6119479;23;20084;-76
2022/07/22 07:02:07;;;;;;;16.15;11.80;;;20.70;99.90;;;;;;6126331;23;20025;-76
2022/07/22 07:04:39;;;;;;;16.85;12.82;;;20.80;99.90;;;;;;6141075;23;20711;-76
2022/07/22 07:07:08;;;;;;;13.55;10.60;;;20.80;99.90;;;;;;6121135;23;20021;-77
2022/07/22 07:10:05;;;;;;;12.40;9.60;;;20.80;99.90;;;;;;6118933;23;20017;-76
2022/07/22 07:12:44;;;;;;;14.18;9.63;;;21.00;99.90;;;;;;6124634;23;20030;-77
2022/07/22 07:15:23;;;;;;;13.63;10.60;;;21.20;99.90;;;;;;6121449;23;20033;-77
2022/07/22 07:18:02;;;;;;;12.73;9.95;;;21.40;99.90;;;;;;6141378;23;20093;-77
2022/07/22 07:20:31;;;;;;;27.52;12.90;;;21.40;99.90;;;;;;6117744;23;20030;-76
2022/07/22 07:23:02;;;;;;;22.52;11.57;;;21.40;99.90;;;;;;6124243;23;20029;-76
2022/07/22 07:25:34;;;;;;;21.25;10.90;;;21.40;99.90;;;;;;6152197;23;20014;-77
2022/07/22 07:28:03;;;;;;;11.85;8.88;;;21.70;99.90;;;;;;6117439;23;20030;-76
2022/07/22 07:31:02;;;;;;;15.45;8.25;;;21.90;99.90;;;;;;6116634;23;20709;-76
2022/07/22 07:33:31;;;;;;;10.07;8.35;;;22.00;99.90;;;;;;6126716;23;20025;-76
2022/07/22 07:36:00;;;;;;;9.88;8.88;;;22.20;99.90;;;;;;6142536;23;20030;-77
2022/07/22 07:38:37;;;;;;;10.30;9.20;;;22.30;99.90;;;;;;6147125;23;20025;-77
2022/07/22 07:41:11;;;;;;;15.52;8.80;;;22.40;99.90;;;;;;6149195;23;20354;-77
2022/07/22 07:43:41;;;;;;;28.23;9.77;;;22.40;99.90;;;;;;6142639;23;20029;-77
2022/07/22 07:46:09;;;;;;;11.10;9.75;;;22.50;99.90;;;;;;6148395;23;20025;-77
2022/07/22 07:48:37;;;;;;;12.43;8.02;;;22.50;99.90;;;;;;6138530;23;20359;-77
2022/07/22 07:51:06;;;;;;;8.45;7.50;;;22.60;99.90;;;;;;6120518;23;20353;-77
2022/07/22 07:53:34;;;;;;;12.40;8.68;;;22.70;99.90;;;;;;6124721;23;20013;-76
2022/07/22 07:56:02;;;;;;;10.65;8.13;;;23.00;99.90;;;;;;6115764;23;20040;-77
2022/07/22 07:58:31;;;;;;;9.50;6.85;;;23.10;99.90;;;;;;6121949;23;20370;-77
2022/07/22 08:01:15;;;;;;;10.43;7.32;;;23.00;99.90;;;;;;6124459;23;20022;-77
2022/07/22 08:04:17;;;;;;;8.85;7.88;;;23.10;99.90;;;;;;6140509;23;20056;-77
2022/07/22 08:07:19;;;;;;;7.93;7.15;;;23.40;99.90;;;;;;6138169;23;20026;-77
2022/07/22 08:09:56;;;;;;;7.88;6.93;;;23.40;99.90;;;;;;6138143;23;20462;-77
2022/07/22 08:13:15;;;;;;;7.88;7.07;;;23.30;99.90;;;;;;6122811;23;20397;-77
2022/07/22 08:16:24;;;;;;;11.75;6.55;;;23.30;99.90;;;;;;6113585;23;20033;-76
2022/07/22 08:18:58;;;;;;;11.45;7.93;;;23.40;99.90;;;;;;6115945;23;20029;-77
2022/07/22 08:21:33;;;;;;;7.05;5.88;;;23.60;99.90;;;;;;6155303;23;20449;-77
2022/07/22 08:24:24;;;;;;;12.50;6.88;;;23.80;99.90;;;;;;6146681;23;20718;-77
2022/07/22 08:26:54;;;;;;;10.60;7.57;;;24.10;99.90;;;;;;6126958;23;20025;-77
2022/07/22 08:29:23;;;;;;;12.30;6.10;;;24.40;99.90;;;;;;6153430;23;20017;-77
2022/07/22 08:31:54;;;;;;;11.57;7.35;;;24.60;99.90;;;;;;6143009;23;20044;-77
2022/07/22 08:34:24;;;;;;;9.77;8.02;;;24.60;99.90;;;;;;6129409;23;20021;-77
2022/07/22 08:37:00;;;;;;;8.00;6.65;;;24.50;99.90;;;;;;6144834;23;20021;-76
2022/07/22 08:39:36;;;;;;;7.63;6.90;;;24.50;99.90;;;;;;6148288;23;20029;-77
2022/07/22 08:42:05;;;;;;;7.93;7.15;;;24.50;99.90;;;;;;6129516;23;20033;-77
2022/07/22 08:44:36;;;;;;;9.40;6.88;;;24.40;99.90;;;;;;6145389;23;20040;-77
2022/07/22 08:47:05;;;;;;;13.13;8.48;;;24.50;99.90;;;;;;6150065;23;20036;-77
2022/07/22 08:50:08;;;;;;;12.57;7.63;;;24.40;99.90;;;;;;6153686;23;20020;-77
2022/07/22 08:53:00;;;;;;;7.72;6.13;;;24.50;99.90;;;;;;6127602;23;20026;-77
2022/07/22 08:55:29;;;;;;;11.65;8.63;;;24.50;99.90;;;;;;6147655;23;20349;-74
2022/07/22 08:57:58;;;;;;;9.07;7.20;;;24.40;99.90;;;;;;6146334;23;20014;-74
2022/07/22 09:00:25;;;;;;;9.82;6.57;;;24.40;99.90;;;;;;6119885;23;20030;-74
2022/07/22 09:02:53;;;;;;;6.45;5.25;;;24.50;99.90;;;;;;6152020;23;20033;-74
2022/07/22 09:05:21;;;;;;;9.93;7.85;;;24.70;99.90;;;;;;6156449;23;20022;-74
2022/07/22 09:08:10;;;;;;;11.50;7.25;;;24.80;99.90;;;;;;6119248;23;20068;-75
2022/07/22 09:11:14;;;;;;;6.93;5.97;;;25.00;99.90;;;;;;6150159;23;20056;-74
2022/07/22 09:14:04;;;;;;;10.88;6.68;;;25.10;99.90;;;;;;6144722;23;20031;-74
2022/07/22 09:16:57;;;;;;;9.07;6.50;;;25.20;99.90;;;;;;6109292;23;20029;-74
2022/07/22 09:19:34;;;;;;;6.38;5.82;;;25.10;99.90;;;;;;6145141;23;20033;-74
2022/07/22 09:22:37;;;;;;;6.97;6.07;;;25.20;99.90;;;;;;6144040;23;20036;-74
2022/07/22 09:25:26;;;;;;;7.13;6.43;;;25.00;99.90;;;;;;6154615;23;20017;-74
2022/07/22 09:28:18;;;;;;;7.97;5.93;;;25.00;99.90;;;;;;6146088;23;20030;-74
2022/07/22 09:31:32;;;;;;;6.80;6.20;;;25.10;99.90;;;;;;6090785;23;20022;-74
2022/07/22 09:34:31;;;;;;;8.85;5.90;;;25.20;99.90;;;;;;6151295;23;20653;-74
2022/07/22 09:37:21;;;;;;;7.07;6.38;;;25.20;99.90;;;;;;6153427;23;20586;-73
2022/07/22 09:39:49;;;;;;;14.23;6.45;;;25.20;99.90;;;;;;6146544;23;20696;-74
2022/07/22 09:42:18;;;;;;;14.52;5.88;;;25.20;99.90;;;;;;6154311;23;20037;-74
2022/07/22 09:44:46;;;;;;;6.65;6.10;;;25.20;99.90;;;;;;6154214;23;20014;-74
2022/07/22 09:47:29;;;;;;;8.73;6.68;;;25.20;99.90;;;;;;6123423;23;20022;-74
2022/07/22 09:50:32;;;;;;;8.55;6.15;;;25.20;99.90;;;;;;6130684;23;20811;-73
2022/07/22 09:53:21;;;;;;;15.57;6.55;;;25.40;99.90;;;;;;6154765;23;20013;-73
2022/07/22 09:56:01;;;;;;;8.23;6.53;;;25.30;99.90;;;;;;6145830;23;20026;-73
2022/07/22 09:58:30;;;;;;;6.68;6.07;;;25.40;99.90;;;;;;6151264;23;20014;-73
2022/07/22 10:01:05;;;;;;;13.60;5.88;;;25.30;99.90;;;;;;6155007;23;20501;-74
2022/07/22 10:03:36;;;;;;;10.75;7.47;;;25.40;99.90;;;;;;6147745;23;20021;-74
2022/07/22 10:06:06;;;;;;;7.57;6.82;;;25.40;99.90;;;;;;6155597;23;20438;-73
2022/07/22 10:08:37;;;;;;;6.70;6.07;;;25.50;99.90;;;;;;6142770;23;20022;-73
2022/07/22 10:11:07;;;;;;;7.70;6.53;;;25.50;99.90;;;;;;6151094;23;20037;-73
2022/07/22 10:13:38;;;;;;;8.07;7.38;;;25.60;99.90;;;;;;6127965;23;20020;-73
2022/07/22 10:16:07;;;;;;;6.13;5.32;;;25.70;99.90;;;;;;6144695;23;20022;-74
2022/07/22 10:18:37;;;;;;;7.27;6.63;;;25.80;99.90;;;;;;6148151;23;20017;-74
2022/07/22 10:21:08;;;;;;;8.82;7.93;;;25.90;99.90;;;;;;6154334;23;20501;-75
2022/07/22 10:24:06;;;;;;;8.13;7.40;;;25.90;99.90;;;;;;6147304;23;20022;-77
2022/07/22 10:26:47;;;;;;;7.15;6.45;;;25.90;99.90;;;;;;6152364;23;20021;-76
2022/07/22 10:29:27;;;;;;;5.82;5.32;;;25.90;99.90;;;;;;6154974;23;20518;-76
2022/07/22 10:32:21;;;;;;;7.90;6.37;;;25.90;99.90;;;;;;6147707;23;20029;-78
2022/07/22 10:34:58;;;;;;;6.07;5.57;;;26.00;99.90;;;;;;6140961;23;20040;-75
2022/07/22 10:37:38;;;;;;;6.57;5.93;;;26.20;99.90;;;;;;6145070;23;20021;-75
2022/07/22 10:40:28;;;;;;;5.95;5.45;;;26.20;99.90;;;;;;6145866;23;20074;-77
2022/07/22 10:42:56;;;;;;;8.68;5.82;;;26.30;99.90;;;;;;6152381;23;20826;-77
2022/07/22 10:45:25;;;;;;;8.35;6.03;;;26.20;99.90;;;;;;6144602;23;20024;-77
2022/07/22 10:47:55;;;;;;;17.30;6.15;;;26.30;99.90;;;;;;6147661;23;20844;-77
2022/07/22 10:50:35;;;;;;;6.90;6.28;;;26.40;99.90;;;;;;6154175;23;20017;-76
2022/07/22 10:53:12;;;;;;;9.43;7.07;;;26.50;99.90;;;;;;6152895;23;20018;-76
2022/07/22 10:55:58;;;;;;;7.90;5.70;;;26.50;99.90;;;;;;6148241;23;20029;-77
2022/07/22 10:58:32;;;;;;;7.88;6.80;;;26.60;99.90;;;;;;6153377;23;20028;-75
2022/07/22 11:01:02;;;;;;;7.53;6.88;;;26.50;99.90;;;;;;6155821;23;20483;-76
2022/07/22 11:03:31;;;;;;;8.90;6.43;;;26.50;99.90;;;;;;6148978;23;20357;-77
2022/07/22 11:06:18;;;;;;;7.93;7.13;;;26.50;99.90;;;;;;6154905;23;20025;-76
2022/07/22 11:08:50;;;;;;;9.05;8.07;;;26.60;99.90;;;;;;6151522;23;20029;-76
2022/07/22 11:11:31;;;;;;;8.48;7.63;;;26.50;99.90;;;;;;6150055;23;20033;-76
2022/07/22 11:13:59;;;;;;;8.60;7.75;;;26.40;99.90;;;;;;6156909;23;20014;-75
2022/07/22 11:16:28;;;;;;;8.07;7.38;;;26.50;99.90;;;;;;6146945;23;20036;-77
2022/07/22 11:19:02;;;;;;;9.60;8.18;;;26.60;99.90;;;;;;6150564;23;20349;-75
2022/07/22 11:21:32;;;;;;;8.60;7.80;;;26.60;99.90;;;;;;6156491;23;20036;-74
2022/07/22 11:24:08;;;;;;;8.70;7.70;;;26.60;99.90;;;;;;6148974;23;20029;-75
2022/07/22 11:26:44;;;;;;;8.93;8.13;;;26.70;99.90;;;;;;6154302;23;20425;-74
2022/07/22 11:29:28;;;;;;;9.30;8.50;;;26.80;99.90;;;;;;6156409;23;20014;-74
2022/07/22 11:31:58;;;;;;;7.45;6.75;;;26.90;99.90;;;;;;6148898;23;20036;-74
2022/07/22 11:34:27;;;;;;;7.60;6.90;;;27.00;99.90;;;;;;6155672;23;20021;-75
2022/07/22 11:36:57;;;;;;;9.25;6.30;;;27.00;99.90;;;;;;6156198;23;20017;-74
2022/07/22 11:39:28;;;;;;;17.70;8.65;;;27.00;99.90;;;;;;6150835;23;20345;-75
2022/07/22 11:41:58;;;;;;;9.77;8.68;;;27.00;99.90;;;;;;6157486;23;20739;-74
2022/07/22 11:44:30;;;;;;;11.90;8.82;;;27.00;99.90;;;;;;6147675;23;20026;-74
2022/07/22 11:47:05;;;;;;;8.15;7.35;;;27.10;99.90;;;;;;6155684;23;20737;-83
2022/07/22 11:49:51;;;;;;;9.80;8.77;;;27.10;99.90;;;;;;6161024;23;20325;-80
2022/07/22 11:52:19;;;;;;;10.75;8.38;;;27.20;99.90;;;;;;6149798;23;20029;-81
2022/07/22 11:54:47;;;;;;;11.05;9.57;;;27.40;99.90;;;;;;6155315;23;20032;-80
2022/07/22 11:57:15;;;;;;;8.07;7.28;;;27.50;99.90;;;;;;6159096;23;20025;-82
2022/07/22 11:59:43;;;;;;;8.43;7.72;;;27.50;99.90;;;;;;6152040;23;20021;-84
2022/07/22 12:02:13;;;;;;;10.23;9.20;;;27.60;99.90;;;;;;6160470;23;20017;-80
2022/07/22 12:04:42;;;;;;;;;;;27.70;99.90;;;;;;6160599;23;20014;-81
2022/07/22 12:07:11;;;;;;;12.70;9.15;;;27.60;99.90;;;;;;6155438;23;20445;-81
2022/07/22 12:09:42;;;;;;;9.52;8.63;;;27.60;99.90;;;;;;6159080;23;20021;-82
2022/07/22 12:12:10;;;;;;;8.02;7.25;;;27.60;99.90;;;;;;6151938;23;20032;-80
2022/07/22 12:14:47;;;;;;;15.20;8.30;;;27.60;99.90;;;;;;6158672;23;20571;-82
2022/07/22 12:17:16;;;;;;;8.55;7.68;;;27.60;99.90;;;;;;6160560;23;20017;-81
2022/07/22 12:19:44;;;;;;;7.97;7.28;;;27.70;99.90;;;;;;6149506;23;20025;-80
2022/07/22 12:22:20;;;;;;;10.40;9.30;;;27.80;99.90;;;;;;6160427;23;20032;-83
2022/07/22 12:25:01;;;;;;;10.85;8.50;;;27.70;99.90;;;;;;6160238;23;20424;-83
2022/07/22 12:27:36;;;;;;;11.90;8.13;;;27.60;99.90;;;;;;6124582;23;20021;-81
2022/07/22 12:30:13;;;;;;;10.98;8.18;;;27.60;99.90;;;;;;6149637;23;20017;-82
2022/07/22 12:32:48;;;;;;;9.57;8.65;;;27.70;99.90;;;;;;6147810;23;20026;-81
2022/07/22 12:35:20;;;;;;;8.23;7.53;;;27.70;99.90;;;;;;6149432;23;20029;-83
2022/07/22 12:37:50;;;;;;;11.17;9.17;;;27.70;99.90;;;;;;6159404;23;20040;-80
2022/07/22 12:40:22;;;;;;;8.70;7.80;;;27.60;99.90;;;;;;6149607;23;20764;-80
2022/07/22 12:43:09;;;;;;;9.80;7.88;;;27.60;99.90;;;;;;6149973;23;20014;-86
2022/07/22 12:45:39;;;;;;;9.60;8.43;;;27.70;99.90;;;;;;6156865;23;20017;-82
2022/07/22 12:48:09;;;;;;;8.60;7.80;;;27.90;99.90;;;;;;6148587;23;20025;-80
2022/07/22 12:50:53;;;;;;;7.35;6.43;;;28.10;99.90;;;;;;6156428;23;20029;-80
2022/07/22 12:53:20;;;;;;;9.23;7.97;;;28.30;99.90;;;;;;6158896;23;20017;-82
2022/07/22 12:56:00;;;;;;;10.68;7.68;;;28.30;99.90;;;;;;6152833;23;20380;-82
2022/07/22 12:58:32;;;;;;;;;;;28.30;99.90;;;;;;6132082;23;20013;-83
2022/07/22 13:01:01;;;;;;;8.02;7.38;;;28.20;99.90;;;;;;6159110;23;20396;-82
2022/07/22 13:03:30;;;;;;;19.65;8.60;;;28.10;99.90;;;;;;6127585;23;20025;-82
2022/07/22 13:06:00;;;;;;;12.73;8.85;;;28.30;99.90;;;;;;6160533;23;20013;-82